sensor_id;sensor_type;location;lat;lon;timestamp;temperature;humidity
11087;DHT22;5597;47.588;9.642;2022-10-29T00:01:18;9.80;99.90
11087;DHT22;5597;47.588;9.642;2022-10-29T00:03:44;9.80;99.90
11087;DHT22;5597;47.588;9.642;2022-10-29T00:06:11;9.80;99.90
11087;DHT22;5597;47.588;9.642;2022-10-29T00:08:38;9.70;99.90
11087;DHT22;5597;47.588;9.642;2022-10-29T00:11:17;9.80;99.90
11087;DHT22;5597;47.588;9.642;2022-10-29T00:13:43;9.70;99.90
11087;DHT22;5597;47.588;9.642;2022-10-29T00:16:12;9.80;99.90
11087;DHT22;5597;47.588;9.642;2022-10-29T00:18:37;9.80;99.90
11087;DHT22;5597;47.588;9.642;2022-10-29T00:21:05;9.80;99.90
11087;DHT22;5597;47.588;9.642;2022-10-29T00:23:31;9.80;99.90
11087;DHT22;5597;47.588;9.642;2022-10-29T00:25:58;9.80;99.90
11087;DHT22;5597;47.588;9.642;2022-10-29T00:28:24;9.70;99.90
11087;DHT22;5597;47.588;9.642;2022-10-29T00:30:50;9.70;99.90
11087;DHT22;5597;47.588;9.642;2022-10-29T00:33:16;9.70;99.90
11087;DHT22;5597;47.588;9.642;2022-10-29T00:35:56;9.60;99.90
11087;DHT22;5597;47.588;9.642;2022-10-29T00:38:22;9.60;99.90
11087;DHT22;5597;47.588;9.642;2022-10-29T00:40:48;9.60;99.90
11087;DHT22;5597;47.588;9.642;2022-10-29T00:43:16;9.60;99.90
11087;DHT22;5597;47.588;9.642;2022-10-29T00:45:52;9.60;99.90
11087;DHT22;5597;47.588;9.642;2022-10-29T00:48:19;9.60;99.90
11087;DHT22;5597;47.588;9.642;2022-10-29T00:50:46;9.60;99.90
11087;DHT22;5597;47.588;9.642;2022-10-29T00:53:14;9.50;99.90
11087;DHT22;5597;47.588;9.642;2022-10-29T00:55:40;9.50;99.90
11087;DHT22;5597;47.588;9.642;2022-10-29T00:58:05;9.40;99.90
11087;DHT22;5597;47.588;9.642;2022-10-29T01:00:31;9.40;99.90
11087;DHT22;5597;47.588;9.642;2022-10-29T01:02:56;9.40;99.90
11087;DHT22;5597;47.588;9.642;2022-10-29T01:05:23;9.40;99.90
11087;DHT22;5597;47.588;9.642;2022-10-29T01:07:50;9.40;99.90
11087;DHT22;5597;47.588;9.642;2022-10-29T01:10:16;9.50;99.90
11087;DHT22;5597;47.588;9.642;2022-10-29T01:12:53;9.40;99.90
11087;DHT22;5597;47.588;9.642;2022-10-29T01:18:19;9.50;99.90
11087;DHT22;5597;47.588;9.642;2022-10-29T01:32:00;9.50;99.90
11087;DHT22;5597;47.588;9.642;2022-10-29T01:34:33;9.50;99.90
11087;DHT22;5597;47.588;9.642;2022-10-29T01:39:48;9.60;99.90
11087;DHT22;5597;47.588;9.642;2022-10-29T01:42:38;9.60;99.90
11087;DHT22;5597;47.588;9.642;2022-10-29T01:45:18;9.60;99.90
11087;DHT22;5597;47.588;9.642;2022-10-29T01:47:54;9.60;99.90
11087;DHT22;5597;47.588;9.642;2022-10-29T01:50:22;9.70;99.90
11087;DHT22;5597;47.588;9.642;2022-10-29T01:52:49;9.70;99.90
11087;DHT22;5597;47.588;9.642;2022-10-29T01:55:18;9.70;99.90
11087;DHT22;5597;47.588;9.642;2022-10-29T01:57:44;9.70;99.90
11087;DHT22;5597;47.588;9.642;2022-10-29T02:00:16;9.70;99.90
11087;DHT22;5597;47.588;9.642;2022-10-29T02:06:05;9.80;99.90
11087;DHT22;5597;47.588;9.642;2022-10-29T02:09:04;9.70;99.90
11087;DHT22;5597;47.588;9.642;2022-10-29T02:14:36;9.80;99.90
11087;DHT22;5597;47.588;9.642;2022-10-29T02:17:03;9.80;99.90
11087;DHT22;5597;47.588;9.642;2022-10-29T02:19:33;9.90;99.90
11087;DHT22;5597;47.588;9.642;2022-10-29T02:21:59;9.90;99.90
11087;DHT22;5597;47.588;9.642;2022-10-29T02:24:25;9.90;99.90
11087;DHT22;5597;47.588;9.642;2022-10-29T02:26:51;9.90;99.90
11087;DHT22;5597;47.588;9.642;2022-10-29T02:29:17;9.90;99.90
11087;DHT22;5597;47.588;9.642;2022-10-29T02:31:43;9.90;99.90
11087;DHT22;5597;47.588;9.642;2022-10-29T02:34:08;9.90;99.90
11087;DHT22;5597;47.588;9.642;2022-10-29T02:36:34;10.00;99.90
11087;DHT22;5597;47.588;9.642;2022-10-29T02:38:59;9.90;99.90
11087;DHT22;5597;47.588;9.642;2022-10-29T02:41:25;9.90;99.90
11087;DHT22;5597;47.588;9.642;2022-10-29T02:43:50;9.90;99.90
11087;DHT22;5597;47.588;9.642;2022-10-29T02:46:20;9.90;99.90
11087;DHT22;5597;47.588;9.642;2022-10-29T02:48:47;9.90;99.90
11087;DHT22;5597;47.588;9.642;2022-10-29T02:51:13;9.90;99.90
11087;DHT22;5597;47.588;9.642;2022-10-29T02:53:39;10.00;99.90
11087;DHT22;5597;47.588;9.642;2022-10-29T02:56:05;10.00;99.90
11087;DHT22;5597;47.588;9.642;2022-10-29T02:58:31;10.10;99.90
11087;DHT22;5597;47.588;9.642;2022-10-29T03:00:57;10.10;99.90
11087;DHT22;5597;47.588;9.642;2022-10-29T03:03:23;10.10;99.90
11087;DHT22;5597;47.588;9.642;2022-10-29T03:05:49;10.10;99.90
11087;DHT22;5597;47.588;9.642;2022-10-29T03:08:15;10.10;99.90
11087;DHT22;5597;47.588;9.642;2022-10-29T03:10:41;10.10;99.90
11087;DHT22;5597;47.588;9.642;2022-10-29T03:13:06;10.20;99.90
11087;DHT22;5597;47.588;9.642;2022-10-29T03:15:32;10.20;99.90
11087;DHT22;5597;47.588;9.642;2022-10-29T03:17:57;10.20;99.90
11087;DHT22;5597;47.588;9.642;2022-10-29T03:20:23;10.20;99.90
11087;DHT22;5597;47.588;9.642;2022-10-29T03:22:49;10.20;99.90
11087;DHT22;5597;47.588;9.642;2022-10-29T03:25:14;10.30;99.90
11087;DHT22;5597;47.588;9.642;2022-10-29T03:27:41;10.30;99.90
11087;DHT22;5597;47.588;9.642;2022-10-29T03:30:16;10.30;99.90
11087;DHT22;5597;47.588;9.642;2022-10-29T03:32:43;10.20;99.90
11087;DHT22;5597;47.588;9.642;2022-10-29T03:35:10;10.20;99.90
11087;DHT22;5597;47.588;9.642;2022-10-29T03:37:36;10.30;99.90
11087;DHT22;5597;47.588;9.642;2022-10-29T03:40:03;10.30;99.90
11087;DHT22;5597;47.588;9.642;2022-10-29T03:42:29;10.30;99.90
11087;DHT22;5597;47.588;9.642;2022-10-29T03:44:59;10.30;99.90
11087;DHT22;5597;47.588;9.642;2022-10-29T03:47:25;10.30;99.90
11087;DHT22;5597;47.588;9.642;2022-10-29T03:49:50;10.40;99.90
11087;DHT22;5597;47.588;9.642;2022-10-29T03:52:16;10.40;99.90
11087;DHT22;5597;47.588;9.642;2022-10-29T03:54:42;10.40;99.90
11087;DHT22;5597;47.588;9.642;2022-10-29T03:57:07;10.40;99.90
11087;DHT22;5597;47.588;9.642;2022-10-29T03:59:33;10.40;99.90
11087;DHT22;5597;47.588;9.642;2022-10-29T04:01:59;10.40;99.90
11087;DHT22;5597;47.588;9.642;2022-10-29T04:04:24;10.50;99.90
11087;DHT22;5597;47.588;9.642;2022-10-29T04:06:50;10.50;99.90
11087;DHT22;5597;47.588;9.642;2022-10-29T04:09:15;10.60;99.90
11087;DHT22;5597;47.588;9.642;2022-10-29T04:11:41;10.60;99.90
11087;DHT22;5597;47.588;9.642;2022-10-29T04:14:07;10.60;99.90
11087;DHT22;5597;47.588;9.642;2022-10-29T04:16:32;10.60;99.90
11087;DHT22;5597;47.588;9.642;2022-10-29T04:18:58;10.60;99.90
11087;DHT22;5597;47.588;9.642;2022-10-29T04:21:24;10.60;99.90
11087;DHT22;5597;47.588;9.642;2022-10-29T04:23:49;10.60;99.90
11087;DHT22;5597;47.588;9.642;2022-10-29T04:26:15;10.60;99.90
11087;DHT22;5597;47.588;9.642;2022-10-29T04:28:41;10.60;99.90
11087;DHT22;5597;47.588;9.642;2022-10-29T04:31:08;10.60;99.90
11087;DHT22;5597;47.588;9.642;2022-10-29T04:33:35;10.60;99.90
11087;DHT22;5597;47.588;9.642;2022-10-29T04:36:00;10.60;99.90
11087;DHT22;5597;47.588;9.642;2022-10-29T04:38:26;10.60;99.90
11087;DHT22;5597;47.588;9.642;2022-10-29T04:40:52;10.60;99.90
11087;DHT22;5597;47.588;9.642;2022-10-29T04:43:17;10.60;99.90
11087;DHT22;5597;47.588;9.642;2022-10-29T04:45:43;10.70;99.90
11087;DHT22;5597;47.588;9.642;2022-10-29T04:48:08;10.60;99.90
11087;DHT22;5597;47.588;9.642;2022-10-29T04:50:36;10.70;99.90
11087;DHT22;5597;47.588;9.642;2022-10-29T04:53:04;10.60;99.90
11087;DHT22;5597;47.588;9.642;2022-10-29T04:55:30;10.60;99.90
11087;DHT22;5597;47.588;9.642;2022-10-29T04:57:56;10.60;99.90
11087;DHT22;5597;47.588;9.642;2022-10-29T05:00:22;10.60;99.90
11087;DHT22;5597;47.588;9.642;2022-10-29T05:02:48;10.60;99.90
11087;DHT22;5597;47.588;9.642;2022-10-29T05:05:15;10.60;99.90
11087;DHT22;5597;47.588;9.642;2022-10-29T05:07:41;10.60;99.90
11087;DHT22;5597;47.588;9.642;2022-10-29T05:10:07;10.60;99.90
11087;DHT22;5597;47.588;9.642;2022-10-29T05:12:32;10.50;99.90
11087;DHT22;5597;47.588;9.642;2022-10-29T05:14:58;10.50;99.90
11087;DHT22;5597;47.588;9.642;2022-10-29T05:17:24;10.50;99.90
11087;DHT22;5597;47.588;9.642;2022-10-29T05:19:49;10.50;99.90
11087;DHT22;5597;47.588;9.642;2022-10-29T05:22:15;10.50;99.90
11087;DHT22;5597;47.588;9.642;2022-10-29T05:24:40;10.40;99.90
11087;DHT22;5597;47.588;9.642;2022-10-29T05:27:06;10.30;99.90
11087;DHT22;5597;47.588;9.642;2022-10-29T05:29:32;10.30;99.90
11087;DHT22;5597;47.588;9.642;2022-10-29T05:31:57;10.20;99.90
11087;DHT22;5597;47.588;9.642;2022-10-29T05:34:23;10.20;99.90
11087;DHT22;5597;47.588;9.642;2022-10-29T05:36:48;10.20;99.90
11087;DHT22;5597;47.588;9.642;2022-10-29T05:39:14;10.20;99.90
11087;DHT22;5597;47.588;9.642;2022-10-29T05:41:40;10.20;99.90
11087;DHT22;5597;47.588;9.642;2022-10-29T05:44:05;10.20;99.90
11087;DHT22;5597;47.588;9.642;2022-10-29T05:46:31;10.10;99.90
11087;DHT22;5597;47.588;9.642;2022-10-29T05:48:57;10.10;99.90
11087;DHT22;5597;47.588;9.642;2022-10-29T05:51:22;10.10;99.90
11087;DHT22;5597;47.588;9.642;2022-10-29T05:53:48;10.00;99.90
11087;DHT22;5597;47.588;9.642;2022-10-29T05:56:13;10.00;99.90
11087;DHT22;5597;47.588;9.642;2022-10-29T05:58:39;9.90;99.90
11087;DHT22;5597;47.588;9.642;2022-10-29T06:01:09;9.90;99.90
11087;DHT22;5597;47.588;9.642;2022-10-29T06:03:35;10.00;99.90
11087;DHT22;5597;47.588;9.642;2022-10-29T06:06:00;9.90;99.90
11087;DHT22;5597;47.588;9.642;2022-10-29T06:08:26;9.90;99.90
11087;DHT22;5597;47.588;9.642;2022-10-29T06:10:51;9.90;99.90
11087;DHT22;5597;47.588;9.642;2022-10-29T06:13:19;9.80;99.90
11087;DHT22;5597;47.588;9.642;2022-10-29T06:15:46;9.80;99.90
11087;DHT22;5597;47.588;9.642;2022-10-29T06:18:12;9.80;99.90
11087;DHT22;5597;47.588;9.642;2022-10-29T06:20:38;9.80;99.90
11087;DHT22;5597;47.588;9.642;2022-10-29T06:23:04;9.90;99.90
11087;DHT22;5597;47.588;9.642;2022-10-29T06:25:29;9.90;99.90
11087;DHT22;5597;47.588;9.642;2022-10-29T06:28:00;9.90;99.90
11087;DHT22;5597;47.588;9.642;2022-10-29T06:30:26;9.90;99.90
11087;DHT22;5597;47.588;9.642;2022-10-29T06:32:52;9.90;99.90
11087;DHT22;5597;47.588;9.642;2022-10-29T06:35:17;9.90;99.90
11087;DHT22;5597;47.588;9.642;2022-10-29T06:37:43;9.90;99.90
11087;DHT22;5597;47.588;9.642;2022-10-29T06:40:09;10.00;99.90
11087;DHT22;5597;47.588;9.642;2022-10-29T06:42:34;10.00;99.90
11087;DHT22;5597;47.588;9.642;2022-10-29T06:45:00;10.00;99.90
11087;DHT22;5597;47.588;9.642;2022-10-29T06:47:25;10.00;99.90
11087;DHT22;5597;47.588;9.642;2022-10-29T06:49:51;10.00;99.90
11087;DHT22;5597;47.588;9.642;2022-10-29T06:52:16;10.00;99.90
11087;DHT22;5597;47.588;9.642;2022-10-29T06:54:42;10.00;99.90
11087;DHT22;5597;47.588;9.642;2022-10-29T06:57:07;10.00;99.90
11087;DHT22;5597;47.588;9.642;2022-10-29T06:59:33;10.10;99.90
11087;DHT22;5597;47.588;9.642;2022-10-29T07:01:58;10.20;99.90
11087;DHT22;5597;47.588;9.642;2022-10-29T07:04:24;10.30;99.90
11087;DHT22;5597;47.588;9.642;2022-10-29T07:06:50;10.30;99.90
11087;DHT22;5597;47.588;9.642;2022-10-29T07:09:15;10.50;99.90
11087;DHT22;5597;47.588;9.642;2022-10-29T07:11:41;10.50;99.90
11087;DHT22;5597;47.588;9.642;2022-10-29T07:14:06;10.60;99.90
11087;DHT22;5597;47.588;9.642;2022-10-29T07:16:34;10.70;99.90
11087;DHT22;5597;47.588;9.642;2022-10-29T07:19:00;10.80;99.90
11087;DHT22;5597;47.588;9.642;2022-10-29T07:21:25;10.90;99.90
11087;DHT22;5597;47.588;9.642;2022-10-29T07:23:51;11.00;99.90
11087;DHT22;5597;47.588;9.642;2022-10-29T07:26:17;11.10;99.90
11087;DHT22;5597;47.588;9.642;2022-10-29T07:28:42;11.20;99.90
11087;DHT22;5597;47.588;9.642;2022-10-29T07:31:08;11.30;99.90
11087;DHT22;5597;47.588;9.642;2022-10-29T07:33:33;11.40;99.90
11087;DHT22;5597;47.588;9.642;2022-10-29T07:35:59;11.50;99.90
11087;DHT22;5597;47.588;9.642;2022-10-29T07:38:25;11.60;99.90
11087;DHT22;5597;47.588;9.642;2022-10-29T07:40:52;11.70;99.90
11087;DHT22;5597;47.588;9.642;2022-10-29T07:43:18;11.80;99.90
11087;DHT22;5597;47.588;9.642;2022-10-29T07:45:46;11.90;99.90
11087;DHT22;5597;47.588;9.642;2022-10-29T07:48:14;12.10;99.90
11087;DHT22;5597;47.588;9.642;2022-10-29T07:50:39;12.20;99.90
11087;DHT22;5597;47.588;9.642;2022-10-29T07:53:06;12.30;99.90
11087;DHT22;5597;47.588;9.642;2022-10-29T07:55:32;12.50;99.90
11087;DHT22;5597;47.588;9.642;2022-10-29T07:57:59;12.60;99.90
11087;DHT22;5597;47.588;9.642;2022-10-29T08:00:27;12.80;99.90
11087;DHT22;5597;47.588;9.642;2022-10-29T08:02:53;13.00;99.90
11087;DHT22;5597;47.588;9.642;2022-10-29T08:05:20;13.10;99.90
11087;DHT22;5597;47.588;9.642;2022-10-29T08:07:45;13.40;99.90
11087;DHT22;5597;47.588;9.642;2022-10-29T08:10:11;13.50;99.90
11087;DHT22;5597;47.588;9.642;2022-10-29T08:12:37;13.70;99.90
11087;DHT22;5597;47.588;9.642;2022-10-29T08:15:02;13.90;99.90
11087;DHT22;5597;47.588;9.642;2022-10-29T08:17:33;14.00;99.90
11087;DHT22;5597;47.588;9.642;2022-10-29T08:19:58;14.20;99.90
11087;DHT22;5597;47.588;9.642;2022-10-29T08:22:24;14.40;99.90
11087;DHT22;5597;47.588;9.642;2022-10-29T08:24:49;14.70;99.90
11087;DHT22;5597;47.588;9.642;2022-10-29T08:27:15;14.80;99.90
11087;DHT22;5597;47.588;9.642;2022-10-29T08:29:40;15.10;99.90
11087;DHT22;5597;47.588;9.642;2022-10-29T08:32:06;15.30;99.90
11087;DHT22;5597;47.588;9.642;2022-10-29T08:34:31;15.50;99.90
11087;DHT22;5597;47.588;9.642;2022-10-29T08:36:57;15.70;99.90
11087;DHT22;5597;47.588;9.642;2022-10-29T08:39:23;15.90;99.90
11087;DHT22;5597;47.588;9.642;2022-10-29T08:42:23;16.20;99.90
11087;DHT22;5597;47.588;9.642;2022-10-29T08:50:23;16.90;99.90
11087;DHT22;5597;47.588;9.642;2022-10-29T08:52:50;17.10;99.90
11087;DHT22;5597;47.588;9.642;2022-10-29T08:55:24;17.30;99.90
11087;DHT22;5597;47.588;9.642;2022-10-29T08:57:56;17.50;99.90
11087;DHT22;5597;47.588;9.642;2022-10-29T09:00:35;17.70;99.90
11087;DHT22;5597;47.588;9.642;2022-10-29T09:03:09;17.80;99.90
11087;DHT22;5597;47.588;9.642;2022-10-29T09:05:48;18.00;99.90
11087;DHT22;5597;47.588;9.642;2022-10-29T09:10:56;18.30;99.90
11087;DHT22;5597;47.588;9.642;2022-10-29T09:21:31;18.60;99.90
11087;DHT22;5597;47.588;9.642;2022-10-29T09:24:04;18.60;99.90
11087;DHT22;5597;47.588;9.642;2022-10-29T09:29:34;18.80;99.90
11087;DHT22;5597;47.588;9.642;2022-10-29T09:32:04;19.00;99.90
11087;DHT22;5597;47.588;9.642;2022-10-29T09:34:46;19.00;99.90
11087;DHT22;5597;47.588;9.642;2022-10-29T09:37:19;19.10;99.90
11087;DHT22;5597;47.588;9.642;2022-10-29T09:39:46;19.20;99.90
11087;DHT22;5597;47.588;9.642;2022-10-29T09:42:29;19.30;99.90
11087;DHT22;5597;47.588;9.642;2022-10-29T09:45:03;19.50;99.90
11087;DHT22;5597;47.588;9.642;2022-10-29T09:50:38;19.70;99.90
11087;DHT22;5597;47.588;9.642;2022-10-29T09:53:06;19.80;99.90
11087;DHT22;5597;47.588;9.642;2022-10-29T09:55:42;19.90;99.90
11087;DHT22;5597;47.588;9.642;2022-10-29T09:58:19;20.10;99.90
11087;DHT22;5597;47.588;9.642;2022-10-29T10:00:45;20.20;99.90
11087;DHT22;5597;47.588;9.642;2022-10-29T10:03:33;20.20;99.90
11087;DHT22;5597;47.588;9.642;2022-10-29T10:06:04;20.20;99.90
11087;DHT22;5597;47.588;9.642;2022-10-29T10:08:30;20.20;99.90
11087;DHT22;5597;47.588;9.642;2022-10-29T10:13:33;20.30;99.90
11087;DHT22;5597;47.588;9.642;2022-10-29T10:16:02;20.30;99.90
11087;DHT22;5597;47.588;9.642;2022-10-29T10:21:23;20.30;99.90
11087;DHT22;5597;47.588;9.642;2022-10-29T10:23:50;20.30;99.90
11087;DHT22;5597;47.588;9.642;2022-10-29T10:26:37;20.20;99.90
11087;DHT22;5597;47.588;9.642;2022-10-29T10:29:21;20.20;99.90
11087;DHT22;5597;47.588;9.642;2022-10-29T10:31:49;20.20;99.90
11087;DHT22;5597;47.588;9.642;2022-10-29T10:36:43;20.30;99.90
11087;DHT22;5597;47.588;9.642;2022-10-29T10:39:20;20.40;99.90
11087;DHT22;5597;47.588;9.642;2022-10-29T10:41:49;20.50;99.90
11087;DHT22;5597;47.588;9.642;2022-10-29T10:44:15;20.60;99.90
11087;DHT22;5597;47.588;9.642;2022-10-29T10:46:43;20.60;99.90
11087;DHT22;5597;47.588;9.642;2022-10-29T10:49:19;20.70;99.90
11087;DHT22;5597;47.588;9.642;2022-10-29T10:51:49;20.70;99.90
11087;DHT22;5597;47.588;9.642;2022-10-29T10:54:37;20.70;99.90
11087;DHT22;5597;47.588;9.642;2022-10-29T10:57:18;20.70;99.90
11087;DHT22;5597;47.588;9.642;2022-10-29T11:05:25;20.80;99.90
11087;DHT22;5597;47.588;9.642;2022-10-29T11:08:03;20.90;99.90
11087;DHT22;5597;47.588;9.642;2022-10-29T11:10:40;21.00;99.90
11087;DHT22;5597;47.588;9.642;2022-10-29T11:13:12;21.00;99.90
11087;DHT22;5597;47.588;9.642;2022-10-29T11:15:40;21.00;99.90
11087;DHT22;5597;47.588;9.642;2022-10-29T11:18:19;21.10;99.90
11087;DHT22;5597;47.588;9.642;2022-10-29T11:21:00;21.20;99.90
11087;DHT22;5597;47.588;9.642;2022-10-29T11:23:55;21.30;99.90
11087;DHT22;5597;47.588;9.642;2022-10-29T11:26:43;21.30;99.90
11087;DHT22;5597;47.588;9.642;2022-10-29T11:29:24;21.30;99.90
11087;DHT22;5597;47.588;9.642;2022-10-29T11:34:23;21.30;99.90
11087;DHT22;5597;47.588;9.642;2022-10-29T11:37:05;21.30;99.90
11087;DHT22;5597;47.588;9.642;2022-10-29T11:39:50;21.30;99.90
11087;DHT22;5597;47.588;9.642;2022-10-29T11:42:18;21.30;99.90
11087;DHT22;5597;47.588;9.642;2022-10-29T11:44:44;21.30;99.90
11087;DHT22;5597;47.588;9.642;2022-10-29T11:52:43;21.50;99.90
11087;DHT22;5597;47.588;9.642;2022-10-29T11:58:40;21.70;99.90
11087;DHT22;5597;47.588;9.642;2022-10-29T12:10:06;21.40;99.90
11087;DHT22;5597;47.588;9.642;2022-10-29T12:15:25;21.50;99.90
11087;DHT22;5597;47.588;9.642;2022-10-29T12:18:03;21.60;99.90
11087;DHT22;5597;47.588;9.642;2022-10-29T12:20:45;21.70;99.90
11087;DHT22;5597;47.588;9.642;2022-10-29T12:29:02;21.70;99.90
11087;DHT22;5597;47.588;9.642;2022-10-29T12:34:10;21.70;99.90
11087;DHT22;5597;47.588;9.642;2022-10-29T12:36:48;21.70;99.90
11087;DHT22;5597;47.588;9.642;2022-10-29T12:39:34;21.80;99.90
11087;DHT22;5597;47.588;9.642;2022-10-29T12:42:11;21.80;99.90
11087;DHT22;5597;47.588;9.642;2022-10-29T12:47:33;21.80;99.90
11087;DHT22;5597;47.588;9.642;2022-10-29T12:50:25;21.80;99.90
11087;DHT22;5597;47.588;9.642;2022-10-29T12:53:16;21.90;99.90
11087;DHT22;5597;47.588;9.642;2022-10-29T12:55:44;22.00;99.90
11087;DHT22;5597;47.588;9.642;2022-10-29T12:58:49;22.00;99.90
11087;DHT22;5597;47.588;9.642;2022-10-29T13:09:22;21.90;99.90
11087;DHT22;5597;47.588;9.642;2022-10-29T13:11:56;21.90;99.90
11087;DHT22;5597;47.588;9.642;2022-10-29T13:14:48;21.90;99.90
11087;DHT22;5597;47.588;9.642;2022-10-29T13:19:53;21.90;99.90
11087;DHT22;5597;47.588;9.642;2022-10-29T13:27:57;21.80;99.90
11087;DHT22;5597;47.588;9.642;2022-10-29T13:30:26;21.70;99.90
11087;DHT22;5597;47.588;9.642;2022-10-29T13:32:53;21.80;99.90
11087;DHT22;5597;47.588;9.642;2022-10-29T13:45:27;21.60;99.90
11087;DHT22;5597;47.588;9.642;2022-10-29T13:48:00;21.60;99.90
11087;DHT22;5597;47.588;9.642;2022-10-29T13:50:28;21.60;99.90
11087;DHT22;5597;47.588;9.642;2022-10-29T13:52:57;21.60;99.90
11087;DHT22;5597;47.588;9.642;2022-10-29T13:55:24;21.50;99.90
11087;DHT22;5597;47.588;9.642;2022-10-29T14:00:19;21.50;99.90
11087;DHT22;5597;47.588;9.642;2022-10-29T14:02:59;21.40;99.90
11087;DHT22;5597;47.588;9.642;2022-10-29T14:05:30;21.40;99.90
11087;DHT22;5597;47.588;9.642;2022-10-29T14:08:20;21.20;99.90
11087;DHT22;5597;47.588;9.642;2022-10-29T14:10:52;21.00;99.90
11087;DHT22;5597;47.588;9.642;2022-10-29T14:18:39;20.70;99.90
11087;DHT22;5597;47.588;9.642;2022-10-29T14:21:16;20.60;99.90
11087;DHT22;5597;47.588;9.642;2022-10-29T14:24:03;20.50;99.90
11087;DHT22;5597;47.588;9.642;2022-10-29T14:26:34;20.40;99.90
11087;DHT22;5597;47.588;9.642;2022-10-29T14:29:20;20.40;99.90
11087;DHT22;5597;47.588;9.642;2022-10-29T14:32:02;20.30;99.90
11087;DHT22;5597;47.588;9.642;2022-10-29T14:34:28;20.20;99.90
11087;DHT22;5597;47.588;9.642;2022-10-29T14:36:57;20.10;99.90
11087;DHT22;5597;47.588;9.642;2022-10-29T14:39:34;20.00;99.90
11087;DHT22;5597;47.588;9.642;2022-10-29T14:42:01;19.90;99.90
11087;DHT22;5597;47.588;9.642;2022-10-29T14:44:29;19.80;99.90
11087;DHT22;5597;47.588;9.642;2022-10-29T14:47:07;19.80;99.90
11087;DHT22;5597;47.588;9.642;2022-10-29T14:49:45;19.70;99.90
11087;DHT22;5597;47.588;9.642;2022-10-29T14:52:33;19.60;99.90
11087;DHT22;5597;47.588;9.642;2022-10-29T14:55:06;19.50;99.90
11087;DHT22;5597;47.588;9.642;2022-10-29T14:57:34;19.40;99.90
11087;DHT22;5597;47.588;9.642;2022-10-29T15:00:05;19.40;99.90
11087;DHT22;5597;47.588;9.642;2022-10-29T15:02:36;19.30;99.90
11087;DHT22;5597;47.588;9.642;2022-10-29T15:05:19;19.20;99.90
11087;DHT22;5597;47.588;9.642;2022-10-29T15:07:46;19.10;99.90
11087;DHT22;5597;47.588;9.642;2022-10-29T15:10:23;19.00;99.90
11087;DHT22;5597;47.588;9.642;2022-10-29T15:12:50;18.90;99.90
11087;DHT22;5597;47.588;9.642;2022-10-29T15:17:51;18.70;99.90
11087;DHT22;5597;47.588;9.642;2022-10-29T15:20:24;18.60;99.90
11087;DHT22;5597;47.588;9.642;2022-10-29T15:22:53;18.60;99.90
11087;DHT22;5597;47.588;9.642;2022-10-29T15:25:25;18.50;99.90
11087;DHT22;5597;47.588;9.642;2022-10-29T15:27:52;18.40;99.90
11087;DHT22;5597;47.588;9.642;2022-10-29T15:30:20;18.30;99.90
11087;DHT22;5597;47.588;9.642;2022-10-29T15:32:47;18.20;99.90
11087;DHT22;5597;47.588;9.642;2022-10-29T15:35:18;18.10;99.90
11087;DHT22;5597;47.588;9.642;2022-10-29T15:37:44;18.00;99.90
11087;DHT22;5597;47.588;9.642;2022-10-29T15:40:18;17.80;99.90
11087;DHT22;5597;47.588;9.642;2022-10-29T15:42:44;17.70;99.90
11087;DHT22;5597;47.588;9.642;2022-10-29T15:47:43;17.50;99.90
11087;DHT22;5597;47.588;9.642;2022-10-29T15:50:12;17.40;99.90
11087;DHT22;5597;47.588;9.642;2022-10-29T15:52:43;17.30;99.90
11087;DHT22;5597;47.588;9.642;2022-10-29T15:55:11;17.10;99.90
11087;DHT22;5597;47.588;9.642;2022-10-29T15:57:37;17.00;99.90
11087;DHT22;5597;47.588;9.642;2022-10-29T16:00:04;16.90;99.90
11087;DHT22;5597;47.588;9.642;2022-10-29T16:02:30;16.80;99.90
11087;DHT22;5597;47.588;9.642;2022-10-29T16:04:56;16.70;99.90
11087;DHT22;5597;47.588;9.642;2022-10-29T16:07:21;16.60;99.90
11087;DHT22;5597;47.588;9.642;2022-10-29T16:09:50;16.50;99.90
11087;DHT22;5597;47.588;9.642;2022-10-29T16:12:16;16.40;99.90
11087;DHT22;5597;47.588;9.642;2022-10-29T16:14:42;16.30;99.90
11087;DHT22;5597;47.588;9.642;2022-10-29T16:17:13;16.20;99.90
11087;DHT22;5597;47.588;9.642;2022-10-29T16:19:39;16.10;99.90
11087;DHT22;5597;47.588;9.642;2022-10-29T16:22:05;16.00;99.90
11087;DHT22;5597;47.588;9.642;2022-10-29T16:24:35;15.90;99.90
11087;DHT22;5597;47.588;9.642;2022-10-29T16:27:00;15.80;99.90
11087;DHT22;5597;47.588;9.642;2022-10-29T16:29:26;15.60;99.90
11087;DHT22;5597;47.588;9.642;2022-10-29T16:31:51;15.60;99.90
11087;DHT22;5597;47.588;9.642;2022-10-29T16:34:17;15.50;99.90
11087;DHT22;5597;47.588;9.642;2022-10-29T16:36:43;15.30;99.90
11087;DHT22;5597;47.588;9.642;2022-10-29T16:39:09;15.20;99.90
11087;DHT22;5597;47.588;9.642;2022-10-29T16:41:34;15.10;99.90
11087;DHT22;5597;47.588;9.642;2022-10-29T16:44:00;15.00;99.90
11087;DHT22;5597;47.588;9.642;2022-10-29T16:46:25;14.90;99.90
11087;DHT22;5597;47.588;9.642;2022-10-29T16:48:52;14.80;99.90
11087;DHT22;5597;47.588;9.642;2022-10-29T16:51:17;14.80;99.90
11087;DHT22;5597;47.588;9.642;2022-10-29T16:53:43;14.70;99.90
11087;DHT22;5597;47.588;9.642;2022-10-29T16:56:08;14.60;99.90
11087;DHT22;5597;47.588;9.642;2022-10-29T16:58:34;14.60;99.90
11087;DHT22;5597;47.588;9.642;2022-10-29T17:01:04;14.50;99.90
11087;DHT22;5597;47.588;9.642;2022-10-29T17:03:30;14.40;99.90
11087;DHT22;5597;47.588;9.642;2022-10-29T17:06:02;14.30;99.90
11087;DHT22;5597;47.588;9.642;2022-10-29T17:08:35;14.20;99.90
11087;DHT22;5597;47.588;9.642;2022-10-29T17:11:02;14.10;99.90
11087;DHT22;5597;47.588;9.642;2022-10-29T17:13:30;14.00;99.90
11087;DHT22;5597;47.588;9.642;2022-10-29T17:15:56;13.90;99.90
11087;DHT22;5597;47.588;9.642;2022-10-29T17:18:21;13.90;99.90
11087;DHT22;5597;47.588;9.642;2022-10-29T17:20:59;13.80;99.90
11087;DHT22;5597;47.588;9.642;2022-10-29T17:23:26;13.80;99.90
11087;DHT22;5597;47.588;9.642;2022-10-29T17:25:56;13.70;99.90
11087;DHT22;5597;47.588;9.642;2022-10-29T17:28:23;13.70;99.90
11087;DHT22;5597;47.588;9.642;2022-10-29T17:30:49;13.70;99.90
11087;DHT22;5597;47.588;9.642;2022-10-29T17:33:15;13.70;99.90
11087;DHT22;5597;47.588;9.642;2022-10-29T17:35:41;13.60;99.90
11087;DHT22;5597;47.588;9.642;2022-10-29T17:38:07;13.60;99.90
11087;DHT22;5597;47.588;9.642;2022-10-29T17:40:32;13.50;99.90
11087;DHT22;5597;47.588;9.642;2022-10-29T17:42:58;13.50;99.90
11087;DHT22;5597;47.588;9.642;2022-10-29T17:45:24;13.50;99.90
11087;DHT22;5597;47.588;9.642;2022-10-29T17:47:56;13.40;99.90
11087;DHT22;5597;47.588;9.642;2022-10-29T17:50:22;13.30;99.90
11087;DHT22;5597;47.588;9.642;2022-10-29T17:52:48;13.30;99.90
11087;DHT22;5597;47.588;9.642;2022-10-29T17:55:14;13.20;99.90
11087;DHT22;5597;47.588;9.642;2022-10-29T17:57:39;13.20;99.90
11087;DHT22;5597;47.588;9.642;2022-10-29T18:00:05;13.20;99.90
11087;DHT22;5597;47.588;9.642;2022-10-29T18:02:31;13.10;99.90
11087;DHT22;5597;47.588;9.642;2022-10-29T18:04:58;13.10;99.90
11087;DHT22;5597;47.588;9.642;2022-10-29T18:07:23;13.00;99.90
11087;DHT22;5597;47.588;9.642;2022-10-29T18:09:49;12.90;99.90
11087;DHT22;5597;47.588;9.642;2022-10-29T18:12:14;12.90;99.90
11087;DHT22;5597;47.588;9.642;2022-10-29T18:14:40;12.80;99.90